createdAt,value
2023-05-25T00:01:02.059Z,658.60
2023-05-25T00:01:52.995Z,558.40
2023-05-25T00:02:52.181Z,537.60
2023-05-25T00:03:51.998Z,436.30
2023-05-25T00:04:51.981Z,508.50
2023-05-25T00:05:51.930Z,565.50
2023-05-25T00:06:51.923Z,620.10
2023-05-25T00:07:51.905Z,570.30
2023-05-25T00:08:51.902Z,576.90
2023-05-25T00:09:51.889Z,547.10
2023-05-25T00:10:51.891Z,539.70
2023-05-25T00:11:51.859Z,528.30
2023-05-25T00:12:51.877Z,482.70
2023-05-25T00:13:51.839Z,390.80
2023-05-25T00:14:51.826Z,425.10
2023-05-25T00:15:51.888Z,400.70
2023-05-25T00:16:51.925Z,431.40
2023-05-25T00:17:51.853Z,460.80
2023-05-25T00:18:51.787Z,474.10
2023-05-25T00:19:51.768Z,313.40
2023-05-25T00:20:51.770Z,274.30
2023-05-25T00:21:51.759Z,353.80
2023-05-25T00:22:51.773Z,420.80
2023-05-25T00:23:51.738Z,469.30
2023-05-25T00:24:51.737Z,264.50
2023-05-25T00:25:51.712Z,268.50
2023-05-25T00:26:51.696Z,373.60
2023-05-25T00:27:51.694Z,268.30
2023-05-25T00:28:51.702Z,262.70
2023-05-25T00:29:51.666Z,442.00
2023-05-25T00:30:51.701Z,378.40
2023-05-25T00:31:51.658Z,348.70
2023-05-25T00:32:51.686Z,386.70
2023-05-25T00:33:51.637Z,384.70
2023-05-25T00:34:51.645Z,476.10
2023-05-25T00:35:51.602Z,246.00
2023-05-25T00:36:51.593Z,339.40
2023-05-25T00:37:51.594Z,393.50
2023-05-25T00:38:51.580Z,390.80
2023-05-25T00:39:51.564Z,313.40
2023-05-25T00:40:51.597Z,349.40
2023-05-25T00:41:51.544Z,331.40
2023-05-25T00:42:51.525Z,318.50
2023-05-25T00:43:51.564Z,289.80
2023-05-25T00:44:51.504Z,320.60
2023-05-25T00:45:51.493Z,257.90
2023-05-25T00:46:51.568Z,265.60
2023-05-25T00:47:51.585Z,224.60
2023-05-25T00:48:51.459Z,249.70
2023-05-25T00:49:51.466Z,303.80
2023-05-25T00:50:51.455Z,199.60
2023-05-25T00:51:51.436Z,127.10
2023-05-25T00:52:51.442Z,52.00
2023-05-25T00:53:51.430Z,82.90
2023-05-25T00:54:51.408Z,77.10
2023-05-25T00:55:51.398Z,35.30
2023-05-25T00:56:51.378Z,28.50
2023-05-25T00:57:51.363Z,106.90
2023-05-25T00:58:51.433Z,43.20
2023-05-25T00:59:51.369Z,27.00
2023-05-25T01:00:51.335Z,71.10
2023-05-25T01:01:51.348Z,53.00
2023-05-25T01:02:51.396Z,20.90
2023-05-25T01:03:51.345Z,16.60
2023-05-25T01:04:51.313Z,11.70
2023-05-25T01:05:51.296Z,11.80
2023-05-25T01:06:51.264Z,20.50
2023-05-25T01:07:51.266Z,10.30
2023-05-25T01:08:51.249Z,8.60
2023-05-25T01:09:51.240Z,9.30
2023-05-25T01:10:51.257Z,7.90
2023-05-25T01:11:51.210Z,7.20
2023-05-25T01:12:51.210Z,6.20
2023-05-25T01:13:51.183Z,6.60
2023-05-25T01:14:51.186Z,6.40
2023-05-25T01:15:51.176Z,4.50
2023-05-25T01:16:51.274Z,3.90
2023-05-25T01:17:51.170Z,4.10
2023-05-25T01:18:51.141Z,4.30
2023-05-25T01:20:08.231Z,3.90
2023-05-25T01:20:52.142Z,3.90
2023-05-25T01:21:51.103Z,3.90
2023-05-25T01:22:51.134Z,3.50
2023-05-25T01:23:51.082Z,2.30
2023-05-25T01:24:51.101Z,1.90
2023-05-25T01:25:51.066Z,1.50
2023-05-25T01:26:51.048Z,1.30
2023-05-25T01:27:51.070Z,1.20
2023-05-25T01:28:51.037Z,1.00
2023-05-25T01:29:51.015Z,1.10
2023-05-25T01:30:51.004Z,1.00
2023-05-25T01:31:51.019Z,1.00
2023-05-25T01:32:51.025Z,1.10
2023-05-25T01:33:50.967Z,1.10
2023-05-25T01:34:51.005Z,1.30
2023-05-25T01:35:50.996Z,1.20
2023-05-25T01:36:50.941Z,1.10
2023-05-25T01:37:50.923Z,1.30
2023-05-25T01:38:50.953Z,1.10
2023-05-25T01:39:50.897Z,1.10
2023-05-25T01:40:50.902Z,1.10
2023-05-25T01:41:50.881Z,1.50
2023-05-25T01:42:50.881Z,1.10
2023-05-25T01:43:50.854Z,0.90
2023-05-25T01:44:50.868Z,1.40
2023-05-25T01:45:50.879Z,0.80
2023-05-25T01:46:50.850Z,0.90
2023-05-25T01:47:50.861Z,0.70
2023-05-25T01:48:50.806Z,0.70
2023-05-25T01:49:50.797Z,0.70
2023-05-25T01:50:50.777Z,0.60
2023-05-25T01:51:50.957Z,0.60
2023-05-25T01:52:50.787Z,0.90
2023-05-25T01:53:50.744Z,0.70
2023-05-25T01:54:50.759Z,0.60
2023-05-25T01:55:50.737Z,0.50
2023-05-25T01:56:50.712Z,0.50
2023-05-25T01:57:50.705Z,0.60
2023-05-25T01:58:50.766Z,0.60
2023-05-25T01:59:50.681Z,0.50
2023-05-25T02:00:50.672Z,0.60
2023-05-25T02:01:53.124Z,0.60
2023-05-25T02:02:50.671Z,0.50
2023-05-25T02:03:50.633Z,0.70
2023-05-25T02:04:50.678Z,1.20
2023-05-25T02:05:50.644Z,0.60
2023-05-25T02:06:50.629Z,0.50
2023-05-25T02:07:50.617Z,0.50
2023-05-25T02:08:50.587Z,0.60
2023-05-25T02:09:50.574Z,0.60
2023-05-25T02:10:50.595Z,0.60
2023-05-25T02:11:50.558Z,0.60
2023-05-25T02:12:50.542Z,0.60
2023-05-25T02:13:50.541Z,0.90
2023-05-25T02:14:50.525Z,0.60
2023-05-25T02:15:50.596Z,1.10
2023-05-25T02:16:50.517Z,1.30
2023-05-25T02:17:50.509Z,1.30
2023-05-25T02:18:50.486Z,0.80
2023-05-25T02:19:50.515Z,1.50
2023-05-25T02:20:50.494Z,1.20
2023-05-25T02:21:50.447Z,1.90
2023-05-25T02:22:50.460Z,1.10
2023-05-25T02:23:50.458Z,2.10
2023-05-25T02:24:50.417Z,2.10
2023-05-25T02:25:50.402Z,1.40
2023-05-25T02:26:50.405Z,1.50
2023-05-25T02:27:50.376Z,2.00
2023-05-25T02:28:50.400Z,4.70
2023-05-25T02:29:50.414Z,7.60
2023-05-25T02:30:50.385Z,4.30
2023-05-25T02:31:50.466Z,3.60
2023-05-25T02:32:50.398Z,3.50
2023-05-25T02:33:50.323Z,6.20
2023-05-25T02:34:50.332Z,4.90
2023-05-25T02:35:50.308Z,2.30
2023-05-25T02:36:50.286Z,3.00
2023-05-25T02:37:51.230Z,2.10
2023-05-25T02:38:50.273Z,2.70
2023-05-25T02:39:50.276Z,2.60
2023-05-25T02:40:50.258Z,2.30
2023-05-25T02:41:50.233Z,2.80
2023-05-25T02:42:50.224Z,2.50
2023-05-25T02:43:50.226Z,3.00
2023-05-25T02:44:50.202Z,3.40
2023-05-25T02:45:50.192Z,4.90
2023-05-25T02:46:50.242Z,3.00
2023-05-25T02:47:50.176Z,2.90
2023-05-25T02:48:50.159Z,2.80
2023-05-25T02:49:50.158Z,3.00
2023-05-25T02:50:50.136Z,3.00
2023-05-25T02:51:50.129Z,3.20
2023-05-25T02:52:50.131Z,2.70
2023-05-25T02:53:50.095Z,2.50
2023-05-25T02:54:50.118Z,2.80
2023-05-25T02:55:50.103Z,2.70
2023-05-25T02:56:50.073Z,2.60
2023-05-25T02:57:50.053Z,3.40
2023-05-25T02:58:50.064Z,2.70
2023-05-25T02:59:50.035Z,3.00
2023-05-25T03:00:50.064Z,2.90
2023-05-25T03:01:50.019Z,2.50
2023-05-25T03:02:50.087Z,3.00
2023-05-25T03:03:50.021Z,3.20
2023-05-25T03:04:50.003Z,3.20
2023-05-25T03:05:49.984Z,2.70
2023-05-25T03:06:49.976Z,2.70
2023-05-25T03:07:49.962Z,2.10
2023-05-25T03:08:49.956Z,2.10
2023-05-25T03:09:49.949Z,3.20
2023-05-25T03:10:49.954Z,3.80
2023-05-25T03:11:49.939Z,3.70
2023-05-25T03:12:49.893Z,3.50
2023-05-25T03:13:49.889Z,2.50
2023-05-25T03:14:49.881Z,4.70
2023-05-25T03:15:49.870Z,4.80
2023-05-25T03:16:52.145Z,4.50
2023-05-25T03:17:49.890Z,6.70
2023-05-25T03:18:49.854Z,9.80
2023-05-25T03:19:49.847Z,5.40
2023-05-25T03:20:49.805Z,4.10
2023-05-25T03:21:49.795Z,3.70
2023-05-25T03:22:49.813Z,3.90
2023-05-25T03:23:49.798Z,7.40
2023-05-25T03:24:49.770Z,6.10
2023-05-25T03:25:49.762Z,6.00
2023-05-25T03:26:49.754Z,5.50
2023-05-25T03:27:49.752Z,5.20
2023-05-25T03:28:49.764Z,7.10
2023-05-25T03:29:49.710Z,7.30
2023-05-25T03:30:49.700Z,6.60
2023-05-25T03:31:49.732Z,5.70
2023-05-25T03:32:49.708Z,7.90
2023-05-25T03:33:49.668Z,7.80
2023-05-25T03:34:49.694Z,5.20
2023-05-25T03:35:49.649Z,4.20
2023-05-25T03:36:49.663Z,5.00
2023-05-25T03:37:49.623Z,4.10
2023-05-25T03:38:49.621Z,4.00
2023-05-25T03:39:49.617Z,4.30
2023-05-25T03:40:49.604Z,3.80
2023-05-25T03:41:49.596Z,4.10
2023-05-25T03:42:49.591Z,4.70
2023-05-25T03:43:49.585Z,4.20
2023-05-25T03:44:50.539Z,4.20
2023-05-25T03:45:49.588Z,4.50
2023-05-25T03:46:49.561Z,3.80
2023-05-25T03:47:49.578Z,6.00
2023-05-25T03:48:49.520Z,4.90
2023-05-25T03:49:49.494Z,5.00
2023-05-25T03:50:49.482Z,5.50
2023-05-25T03:51:49.495Z,5.60
2023-05-25T03:52:49.461Z,6.00
2023-05-25T03:53:49.460Z,4.40
2023-05-25T03:54:49.440Z,6.00
2023-05-25T03:55:49.440Z,4.40
2023-05-25T03:56:49.419Z,3.60
2023-05-25T03:57:49.418Z,4.20
2023-05-25T03:58:49.397Z,4.20
2023-05-25T03:59:49.411Z,4.30
2023-05-25T04:00:49.372Z,4.40
2023-05-25T04:01:49.372Z,5.30
2023-05-25T04:02:49.455Z,4.00
2023-05-25T04:03:49.490Z,4.20
2023-05-25T04:04:49.409Z,4.50
2023-05-25T04:05:49.315Z,5.30
2023-05-25T04:06:49.309Z,5.30
2023-05-25T04:07:49.296Z,5.00
2023-05-25T04:08:49.300Z,4.80
2023-05-25T04:09:49.297Z,4.30
2023-05-25T04:10:49.262Z,4.20
2023-05-25T04:11:49.260Z,4.00
2023-05-25T04:12:49.244Z,5.10
2023-05-25T04:13:49.243Z,4.60
2023-05-25T04:14:49.230Z,4.70
2023-05-25T04:15:49.229Z,5.20
2023-05-25T04:16:49.311Z,5.70
2023-05-25T04:17:49.193Z,6.30
2023-05-25T04:18:49.183Z,6.50
2023-05-25T04:19:49.173Z,6.10
2023-05-25T04:20:49.164Z,5.60
2023-05-25T04:21:49.163Z,5.50
2023-05-25T04:22:49.157Z,4.50
2023-05-25T04:23:49.119Z,4.10
2023-05-25T04:24:49.111Z,2.80
2023-05-25T04:25:49.110Z,2.60
2023-05-25T04:26:49.088Z,1.70
2023-05-25T04:27:49.108Z,2.00
2023-05-25T04:28:49.082Z,1.50
2023-05-25T04:29:49.057Z,2.90
2023-05-25T04:30:49.050Z,2.10
2023-05-25T04:31:49.062Z,2.50
2023-05-25T04:32:49.073Z,2.70
2023-05-25T04:33:49.026Z,3.80
2023-05-25T04:34:49.010Z,6.50
2023-05-25T04:35:48.995Z,5.70
2023-05-25T04:36:48.988Z,4.40
2023-05-25T04:37:48.978Z,3.40
2023-05-25T04:38:48.980Z,3.70
2023-05-25T04:39:48.987Z,4.70
2023-05-25T04:40:48.940Z,4.10
2023-05-25T04:41:48.932Z,4.10
2023-05-25T04:42:48.970Z,4.40
2023-05-25T04:44:04.770Z,434.70
2023-05-25T04:44:49.892Z,192.30
2023-05-25T04:45:48.931Z,7.30
2023-05-25T04:46:48.875Z,4.30
2023-05-25T04:47:48.896Z,3.40
2023-05-25T04:48:48.849Z,3.20
2023-05-25T04:49:48.847Z,4.30
2023-05-25T04:50:48.846Z,3.90
2023-05-25T04:51:48.821Z,3.00
2023-05-25T04:52:48.827Z,3.40
2023-05-25T04:53:48.795Z,2.50
2023-05-25T04:54:48.781Z,2.00
2023-05-25T04:55:48.779Z,1.70
2023-05-25T04:56:48.788Z,1.80
2023-05-25T04:57:48.750Z,2.60
2023-05-25T04:58:48.809Z,2.10
2023-05-25T04:59:48.739Z,2.10
2023-05-25T05:00:50.249Z,1.50
2023-05-25T05:01:48.775Z,1.30
2023-05-25T05:02:48.795Z,1.20
2023-05-25T05:03:48.792Z,2.20
2023-05-25T05:04:48.681Z,1.60
2023-05-25T05:05:48.665Z,2.30
2023-05-25T05:06:48.680Z,1.50
2023-05-25T05:07:48.646Z,2.40
2023-05-25T05:08:48.649Z,2.20
2023-05-25T05:09:48.648Z,2.00
2023-05-25T05:10:48.608Z,1.90
2023-05-25T05:11:48.598Z,1.60
2023-05-25T05:12:48.605Z,1.80
2023-05-25T05:13:48.590Z,1.80
2023-05-25T05:14:48.577Z,1.30
2023-05-25T05:15:48.598Z,1.40
2023-05-25T05:16:48.588Z,0.90
2023-05-25T05:17:48.599Z,0.80
2023-05-25T05:18:48.527Z,1.20
2023-05-25T05:19:48.547Z,1.60
2023-05-25T05:20:48.506Z,1.00
2023-05-25T05:21:48.519Z,1.00
2023-05-25T05:22:48.479Z,1.00
2023-05-25T05:23:48.480Z,0.70
2023-05-25T05:24:48.457Z,1.10
2023-05-25T05:25:48.457Z,1.30
2023-05-25T05:26:58.327Z,1.10
2023-05-25T05:27:49.480Z,1.10
2023-05-25T05:28:48.410Z,1.10
2023-05-25T05:29:48.404Z,1.30
2023-05-25T05:30:48.393Z,1.50
2023-05-25T05:31:48.611Z,1.10
2023-05-25T05:32:48.413Z,1.60
2023-05-25T05:33:48.399Z,1.20
2023-05-25T05:34:48.346Z,1.20
2023-05-25T05:35:48.375Z,1.30
2023-05-25T05:36:57.528Z,1.10
2023-05-25T05:37:49.331Z,1.20
2023-05-25T05:38:48.308Z,1.20
2023-05-25T05:39:48.311Z,1.30
2023-05-25T05:40:48.322Z,1.30
2023-05-25T05:41:48.284Z,1.60
2023-05-25T05:42:48.258Z,1.60
2023-05-25T05:43:48.272Z,1.70
2023-05-25T05:44:48.240Z,1.10
2023-05-25T05:45:48.280Z,1.20
2023-05-25T05:46:48.287Z,7.20
2023-05-25T05:47:48.240Z,1.10
2023-05-25T05:48:48.194Z,3.90
2023-05-25T05:49:48.216Z,3.90
2023-05-25T05:50:48.173Z,1.50
2023-05-25T05:51:48.207Z,1.70
2023-05-25T05:52:48.150Z,1.50
2023-05-25T05:53:48.147Z,0.70
2023-05-25T05:54:48.143Z,0.70
2023-05-25T05:55:49.590Z,1.50
2023-05-25T05:56:48.119Z,1.40
2023-05-25T05:57:48.134Z,1.00
2023-05-25T05:58:48.087Z,0.70
2023-05-25T05:59:48.083Z,0.90
2023-05-25T06:00:48.070Z,1.50
2023-05-25T06:01:48.077Z,2.00
2023-05-25T06:02:48.198Z,0.90
2023-05-25T06:03:48.070Z,0.90
2023-05-25T06:04:48.074Z,0.90
2023-05-25T06:05:48.285Z,1.40
2023-05-25T06:06:48.004Z,1.50
2023-05-25T06:07:48.011Z,1.60
2023-05-25T06:08:48.002Z,1.00
2023-05-25T06:09:47.983Z,0.70
2023-05-25T06:10:47.974Z,1.00
2023-05-25T06:11:47.942Z,0.60
2023-05-25T06:12:47.929Z,0.80
2023-05-25T06:13:47.926Z,0.70
2023-05-25T06:14:47.919Z,1.00
2023-05-25T06:15:47.921Z,0.80
2023-05-25T06:16:47.956Z,1.20
2023-05-25T06:17:47.898Z,0.80
2023-05-25T06:18:47.866Z,1.30
2023-05-25T06:19:47.864Z,0.90
2023-05-25T06:20:48.000Z,1.20
2023-05-25T06:21:47.848Z,1.60
2023-05-25T06:22:47.821Z,0.70
2023-05-25T06:23:47.953Z,1.50
2023-05-25T06:24:47.807Z,0.70
2023-05-25T06:25:47.792Z,0.80
2023-05-25T06:26:47.790Z,0.70
2023-05-25T06:27:47.789Z,1.20
2023-05-25T06:28:47.772Z,1.60
2023-05-25T06:29:47.746Z,0.80
2023-05-25T06:30:47.754Z,2.00
2023-05-25T06:31:47.812Z,0.80
2023-05-25T06:32:47.743Z,0.70
2023-05-25T06:33:47.722Z,1.10
2023-05-25T06:34:47.700Z,1.10
2023-05-25T06:35:47.926Z,1.20
2023-05-25T06:36:47.680Z,0.70
2023-05-25T06:37:47.663Z,0.90
2023-05-25T06:38:47.667Z,0.70
2023-05-25T06:39:47.675Z,1.00
2023-05-25T06:40:47.626Z,0.80
2023-05-25T06:41:47.626Z,0.70
2023-05-25T06:42:47.602Z,0.80
2023-05-25T06:43:47.599Z,0.90
2023-05-25T06:44:47.582Z,1.90
2023-05-25T06:45:47.879Z,1.40
2023-05-25T06:46:47.650Z,1.70
2023-05-25T06:47:47.614Z,1.40
2023-05-25T06:48:47.577Z,2.50
2023-05-25T06:49:47.537Z,1.10
2023-05-25T06:50:47.535Z,1.00
2023-05-25T06:51:47.524Z,3.20
2023-05-25T06:52:47.493Z,1.60
2023-05-25T06:53:47.486Z,1.00
2023-05-25T06:54:47.488Z,1.50
2023-05-25T06:55:47.556Z,0.80
2023-05-25T06:56:47.458Z,1.50
2023-05-25T06:57:47.467Z,1.50
2023-05-25T06:58:47.430Z,77.70
2023-05-25T06:59:47.432Z,20.70
2023-05-25T07:00:47.408Z,34.90
2023-05-25T07:01:47.605Z,16.60
2023-05-25T07:02:47.410Z,34.20
2023-05-25T07:03:47.397Z,6.10
2023-05-25T07:04:47.427Z,2.20
2023-05-25T07:05:47.357Z,99.00
2023-05-25T07:06:47.345Z,27.10
2023-05-25T07:07:47.356Z,106.40
2023-05-25T07:08:47.324Z,14.90
2023-05-25T07:09:47.343Z,21.40
2023-05-25T07:10:49.315Z,2.20
2023-05-25T07:11:47.331Z,2.70
2023-05-25T07:12:47.282Z,7.30
2023-05-25T07:13:47.274Z,492.20
2023-05-25T07:14:47.262Z,113.30
2023-05-25T07:15:47.533Z,124.40
2023-05-25T07:16:47.242Z,6.40
2023-05-25T07:17:47.315Z,11.10
2023-05-25T07:18:47.217Z,208.20
2023-05-25T07:19:47.210Z,631.40
2023-05-25T07:20:47.306Z,214.90
2023-05-25T07:21:47.215Z,36.10
2023-05-25T07:22:47.189Z,3.00
2023-05-25T07:23:47.165Z,188.50
2023-05-25T07:24:47.156Z,29.60
2023-05-25T07:25:47.242Z,31.30
2023-05-25T07:26:47.145Z,730.60
2023-05-25T07:27:47.148Z,794.90
2023-05-25T07:28:47.116Z,409.60
2023-05-25T07:29:47.132Z,579.60
2023-05-25T07:30:47.088Z,468.70
2023-05-25T07:31:47.275Z,176.40
2023-05-25T07:32:47.079Z,386.40
2023-05-25T07:33:47.082Z,21.00
2023-05-25T07:34:47.065Z,355.90
2023-05-25T07:35:47.176Z,83.60
2023-05-25T07:36:47.025Z,104.10
2023-05-25T07:37:47.025Z,275.60
2023-05-25T07:38:47.013Z,871.60
2023-05-25T07:39:47.024Z,569.80
2023-05-25T07:40:46.980Z,262.50
2023-05-25T07:41:46.976Z,282.80
2023-05-25T07:42:46.961Z,353.10
2023-05-25T07:43:46.992Z,642.20
2023-05-25T07:44:46.966Z,919.00
2023-05-25T07:45:47.011Z,600.00
2023-05-25T07:46:46.963Z,562.70
2023-05-25T07:47:46.915Z,234.80
2023-05-25T07:48:46.889Z,40.60
2023-05-25T07:49:46.898Z,29.60
2023-05-25T07:50:46.879Z,31.30
2023-05-25T07:51:46.885Z,15.30
2023-05-25T07:52:46.910Z,61.50
2023-05-25T07:53:46.868Z,79.30
2023-05-25T07:54:46.892Z,4.20
2023-05-25T07:55:47.086Z,74.10
2023-05-25T07:56:46.808Z,75.70
2023-05-25T07:57:46.826Z,3.70
2023-05-25T07:58:46.787Z,3.70
2023-05-25T07:59:46.794Z,3.40
2023-05-25T08:00:46.781Z,3.00
2023-05-25T08:01:46.801Z,3.20
2023-05-25T08:02:46.820Z,2.80
2023-05-25T08:03:49.532Z,3.30
2023-05-25T08:04:46.763Z,2.90
2023-05-25T08:05:46.872Z,5.80
2023-05-25T08:06:46.726Z,2.60
2023-05-25T08:07:46.740Z,2.50
2023-05-25T08:08:46.680Z,2.60
2023-05-25T08:09:46.708Z,2.60
2023-05-25T08:10:46.656Z,2.70
2023-05-25T08:11:46.646Z,2.70
2023-05-25T08:12:49.694Z,2.70
2023-05-25T08:13:46.624Z,2.70
2023-05-25T08:14:46.608Z,2.80
2023-05-25T08:15:46.775Z,3.40
2023-05-25T08:16:46.643Z,2.50
2023-05-25T08:17:46.616Z,3.40
2023-05-25T08:18:46.568Z,2.90
2023-05-25T08:19:46.579Z,3.00
2023-05-25T08:20:46.650Z,19.10
2023-05-25T08:21:46.564Z,39.90
2023-05-25T08:22:46.527Z,3.20
2023-05-25T08:23:46.516Z,3.50
2023-05-25T08:24:46.499Z,3.40
2023-05-25T08:25:46.748Z,3.30
2023-05-25T08:27:47.492Z,3.10
2023-05-25T08:28:46.518Z,4.40
2023-05-25T08:29:46.462Z,3.40
2023-05-25T08:30:46.530Z,16.70
2023-05-25T08:31:46.463Z,3.80
2023-05-25T08:32:46.535Z,3.30
2023-05-25T08:33:46.466Z,3.70
2023-05-25T08:34:46.407Z,3.40
2023-05-25T08:35:46.646Z,3.10
2023-05-25T08:36:46.387Z,3.50
2023-05-25T08:37:46.411Z,3.40
2023-05-25T08:38:46.370Z,3.20
2023-05-25T08:39:46.384Z,3.40
2023-05-25T08:40:46.326Z,3.20
2023-05-25T08:41:46.324Z,3.90
2023-05-25T08:42:46.314Z,3.50
2023-05-25T08:43:46.310Z,3.30
2023-05-25T08:44:46.280Z,3.20
2023-05-25T08:45:47.404Z,3.00
2023-05-25T08:46:46.266Z,2.90
2023-05-25T08:47:46.369Z,2.80
2023-05-25T08:48:46.330Z,3.20
2023-05-25T08:49:46.479Z,2.80
2023-05-25T08:50:46.231Z,2.60
2023-05-25T08:51:46.221Z,2.60
2023-05-25T08:52:46.206Z,3.70
2023-05-25T08:53:46.193Z,2.80
2023-05-25T08:54:46.173Z,3.60
2023-05-25T08:55:46.403Z,2.90
2023-05-25T08:56:46.161Z,2.50
2023-05-25T08:57:46.166Z,2.40
2023-05-25T08:58:46.127Z,2.70
2023-05-25T08:59:46.124Z,2.50
2023-05-25T09:00:46.323Z,2.60
2023-05-25T09:01:46.186Z,2.70
2023-05-25T09:02:46.188Z,2.40
2023-05-25T09:03:46.289Z,2.90
2023-05-25T09:04:46.058Z,2.10
2023-05-25T09:05:46.222Z,2.60
2023-05-25T09:06:57.170Z,1.90
2023-05-25T09:07:47.035Z,1.90
2023-05-25T09:08:46.021Z,2.30
2023-05-25T09:09:46.035Z,2.20
2023-05-25T09:10:45.997Z,2.10
2023-05-25T09:11:46.030Z,2.00
2023-05-25T09:12:45.975Z,2.00
2023-05-25T09:13:45.978Z,2.50
2023-05-25T09:14:46.031Z,2.20
2023-05-25T09:15:46.096Z,2.00
2023-05-25T09:16:45.952Z,2.20
2023-05-25T09:17:45.935Z,1.80
2023-05-25T09:18:45.908Z,2.20
2023-05-25T09:19:45.915Z,2.50
2023-05-25T09:20:47.336Z,29.60
2023-05-25T09:21:45.899Z,13.70
2023-05-25T09:22:45.890Z,2.00
2023-05-25T09:23:45.856Z,7.70
2023-05-25T09:24:45.868Z,4.20
2023-05-25T09:25:45.844Z,2.50
2023-05-25T09:26:48.113Z,3.40
2023-05-25T09:27:45.841Z,1.60
2023-05-25T09:28:45.806Z,2.10
2023-05-25T09:29:45.793Z,1.90
2023-05-25T09:30:45.997Z,2.00
2023-05-25T09:31:45.821Z,1.90
2023-05-25T09:32:45.814Z,2.00
2023-05-25T09:33:45.762Z,2.40
2023-05-25T09:34:45.741Z,1.60
2023-05-25T09:35:45.775Z,1.60
2023-05-25T09:36:45.913Z,1.50
2023-05-25T09:37:45.843Z,2.40
2023-05-25T09:38:46.056Z,1.80
2023-05-25T09:39:45.821Z,1.70
2023-05-25T09:40:45.902Z,1.80
2023-05-25T09:41:45.667Z,1.30
2023-05-25T09:42:45.667Z,1.40
2023-05-25T09:43:54.758Z,1.20
2023-05-25T09:44:46.669Z,1.90
2023-05-25T09:45:45.652Z,1.50
2023-05-25T09:46:45.622Z,1.80
2023-05-25T09:47:45.670Z,1.80
2023-05-25T09:48:45.594Z,1.80
2023-05-25T09:49:45.583Z,1.60
2023-05-25T09:50:48.025Z,1.30
2023-05-25T09:51:45.605Z,1.40
2023-05-25T09:52:45.557Z,2.00
2023-05-25T09:53:45.533Z,2.10
2023-05-25T09:54:45.526Z,2.10
2023-05-25T09:55:53.753Z,2.10
2023-05-25T09:56:46.651Z,3.50
2023-05-25T09:57:45.500Z,1.70
2023-05-25T09:58:45.480Z,1.70
2023-05-25T09:59:45.481Z,1.40
2023-05-25T10:00:45.798Z,1.60
2023-05-25T10:01:45.501Z,1.70
2023-05-25T10:02:45.470Z,2.80
2023-05-25T10:03:59.714Z,1.50
2023-05-25T10:04:46.570Z,2.00
2023-05-25T10:05:45.404Z,1.60
2023-05-25T10:06:45.460Z,1.90
2023-05-25T10:07:45.399Z,1.70
2023-05-25T10:08:45.382Z,1.40
2023-05-25T10:09:45.368Z,1.80
2023-05-25T10:10:45.645Z,2.00
2023-05-25T10:11:45.331Z,1.70
2023-05-25T10:12:45.336Z,1.90
2023-05-25T10:13:45.340Z,1.50
2023-05-25T10:14:45.333Z,1.90
2023-05-25T10:15:45.320Z,1.60
2023-05-25T10:16:45.322Z,1.60
2023-05-25T10:17:45.361Z,1.50
2023-05-25T10:18:45.273Z,2.20
2023-05-25T10:19:45.285Z,1.60
2023-05-25T10:20:45.290Z,1.90
2023-05-25T10:21:45.241Z,2.00
2023-05-25T10:22:45.225Z,2.70
2023-05-25T10:23:45.239Z,2.50
2023-05-25T10:24:45.203Z,2.20
2023-05-25T10:25:45.201Z,2.10
2023-05-25T10:26:45.259Z,1.70
2023-05-25T10:27:45.171Z,1.80
2023-05-25T10:28:45.160Z,2.20
2023-05-25T10:29:45.136Z,2.50
2023-05-25T10:30:45.144Z,1.80
2023-05-25T10:31:45.163Z,1.70
2023-05-25T10:32:45.115Z,2.30
2023-05-25T10:33:49.125Z,1.70
2023-05-25T10:34:46.088Z,1.60
2023-05-25T10:36:01.621Z,3.20
2023-05-25T10:36:46.086Z,1.70
2023-05-25T10:37:45.053Z,2.80
2023-05-25T10:38:45.040Z,2.30
2023-05-25T10:39:45.051Z,1.90
2023-05-25T10:40:45.022Z,1.80
2023-05-25T10:41:45.019Z,1.50
2023-05-25T10:42:44.998Z,2.60
2023-05-25T10:43:44.994Z,1.90
2023-05-25T10:44:44.974Z,1.70
2023-05-25T10:45:45.276Z,1.70
2023-05-25T10:46:45.099Z,2.00
2023-05-25T10:47:44.982Z,2.40
2023-05-25T10:48:44.944Z,1.60
2023-05-25T10:49:44.989Z,2.40
2023-05-25T10:50:44.910Z,1.70
2023-05-25T10:51:44.923Z,2.60
2023-05-25T10:52:44.893Z,3.40
2023-05-25T10:53:44.875Z,1.70
2023-05-25T10:54:44.870Z,2.50
2023-05-25T10:55:45.112Z,1.70
2023-05-25T10:56:46.233Z,1.50
2023-05-25T10:57:44.851Z,1.50
2023-05-25T10:58:44.826Z,1.70
2023-05-25T10:59:44.812Z,1.90
2023-05-25T11:00:44.908Z,2.60
2023-05-25T11:01:44.859Z,2.20
2023-05-25T11:02:44.851Z,2.20
2023-05-25T11:03:45.261Z,1.90
2023-05-25T11:04:44.889Z,2.40
2023-05-25T11:05:45.099Z,2.50
2023-05-25T11:06:44.766Z,2.60
2023-05-25T11:07:44.730Z,2.60
2023-05-25T11:08:44.728Z,1.80
2023-05-25T11:09:44.734Z,2.20
2023-05-25T11:10:44.702Z,2.00
2023-05-25T11:11:44.700Z,2.90
2023-05-25T11:12:44.676Z,2.10
2023-05-25T11:13:44.678Z,2.40
2023-05-25T11:14:44.662Z,2.10
2023-05-25T11:15:44.919Z,1.60
2023-05-25T11:16:44.682Z,2.10
2023-05-25T11:17:44.670Z,4.30
2023-05-25T11:18:44.618Z,1.70
2023-05-25T11:19:44.610Z,2.50
2023-05-25T11:20:44.706Z,2.20
2023-05-25T11:21:44.611Z,1.50
2023-05-25T11:22:44.564Z,1.60
2023-05-25T11:23:44.560Z,2.40
2023-05-25T11:24:44.569Z,2.70
2023-05-25T11:25:44.780Z,2.10
2023-05-25T11:26:44.531Z,2.30
2023-05-25T11:27:44.545Z,2.30
2023-05-25T11:28:44.498Z,2.90
2023-05-25T11:29:44.492Z,2.00
2023-05-25T11:30:44.491Z,2.60
2023-05-25T11:31:44.495Z,2.80
2023-05-25T11:32:44.464Z,2.50
2023-05-25T11:33:44.464Z,2.40
2023-05-25T11:34:44.451Z,3.10
2023-05-25T11:35:44.620Z,3.50
2023-05-25T11:36:44.413Z,4.60
2023-05-25T11:37:44.404Z,3.70
2023-05-25T11:38:52.893Z,8.60
2023-05-25T11:39:45.391Z,2.60
2023-05-25T11:40:44.374Z,13.50
2023-05-25T11:41:44.363Z,98.20
2023-05-25T11:42:44.362Z,2.20
2023-05-25T11:43:44.364Z,4.40
2023-05-25T11:44:44.343Z,6.30
2023-05-25T11:45:44.350Z,3.60
2023-05-25T11:46:44.369Z,14.80
2023-05-25T11:47:44.320Z,3.50
2023-05-25T11:48:44.286Z,3.40
2023-05-25T11:49:44.301Z,3.40
2023-05-25T11:50:44.429Z,5.20
2023-05-25T11:51:44.266Z,6.50
2023-05-25T11:52:44.253Z,7.20
2023-05-25T11:53:44.231Z,5.00
2023-05-25T11:54:44.226Z,3.90
2023-05-25T11:55:44.221Z,2.90
2023-05-25T11:56:44.206Z,8.70
2023-05-25T11:57:44.207Z,4.40
2023-05-25T11:58:44.173Z,6.30
2023-05-25T11:59:44.201Z,2.70
2023-05-25T12:00:44.368Z,8.50
2023-05-25T12:01:44.142Z,14.00
2023-05-25T12:02:44.206Z,2.50
2023-05-25T12:03:44.247Z,3.90
2023-05-25T12:04:44.194Z,3.30
2023-05-25T12:05:44.347Z,4.00
2023-05-25T12:06:44.094Z,5.70
2023-05-25T12:07:44.077Z,9.80
2023-05-25T12:08:44.066Z,23.10
2023-05-25T12:09:44.069Z,4.90
2023-05-25T12:10:44.245Z,3.10
2023-05-25T12:11:44.035Z,4.00
2023-05-25T12:12:44.032Z,2.20
2023-05-25T12:13:44.011Z,12.80
2023-05-25T12:14:44.000Z,4.60
2023-05-25T12:15:44.240Z,4.00
2023-05-25T12:16:44.012Z,15.50
2023-05-25T12:17:44.019Z,28.50
2023-05-25T12:18:43.964Z,66.30
2023-05-25T12:19:43.951Z,44.40
2023-05-25T12:20:44.191Z,71.10
2023-05-25T12:21:43.935Z,26.00
2023-05-25T12:22:43.932Z,18.30
2023-05-25T12:23:43.909Z,49.70
2023-05-25T12:24:43.894Z,36.30
2023-05-25T12:25:50.846Z,29.30
2023-05-25T12:26:44.865Z,8.10
2023-05-25T12:27:43.907Z,128.60
2023-05-25T12:28:43.865Z,54.20
2023-05-25T12:29:43.849Z,4.30
2023-05-25T12:30:43.870Z,4.50
2023-05-25T12:31:43.837Z,3.90
2023-05-25T12:32:43.847Z,2.30
2023-05-25T12:33:43.805Z,2.50
2023-05-25T12:34:43.792Z,4.20
2023-05-25T12:35:44.085Z,4.40
2023-05-25T12:36:43.760Z,5.20
2023-05-25T12:37:43.755Z,3.40
2023-05-25T12:38:43.747Z,2.90
2023-05-25T12:39:43.758Z,3.50
2023-05-25T12:40:44.810Z,2.90
2023-05-25T12:41:43.711Z,3.50
2023-05-25T12:42:43.713Z,2.70
2023-05-25T12:43:43.692Z,3.00
2023-05-25T12:44:43.686Z,2.50
2023-05-25T12:45:43.715Z,2.20
2023-05-25T12:46:43.682Z,2.10
2023-05-25T12:47:43.690Z,2.60
2023-05-25T12:48:43.636Z,1.70
2023-05-25T12:49:43.660Z,2.30
2023-05-25T12:50:43.754Z,2.70
2023-05-25T12:51:43.614Z,2.60
2023-05-25T12:52:43.594Z,2.80
2023-05-25T12:53:43.590Z,2.80
2023-05-25T12:54:43.577Z,2.40
2023-05-25T12:55:43.559Z,3.10
2023-05-25T12:56:43.546Z,2.50
2023-05-25T12:57:43.553Z,2.10
2023-05-25T12:58:43.534Z,3.10
2023-05-25T12:59:43.517Z,3.70
2023-05-25T13:00:43.778Z,3.80
2023-05-25T13:02:35.715Z,2.70
2023-05-25T13:03:35.722Z,2.20
2023-05-25T13:04:35.683Z,2.20
2023-05-25T13:05:35.734Z,2.40
2023-05-25T13:06:35.675Z,2.60
2023-05-25T13:07:35.668Z,2.50
2023-05-25T13:08:35.642Z,4.00
2023-05-25T13:09:35.701Z,3.20
2023-05-25T13:10:35.622Z,2.50
2023-05-25T13:11:35.611Z,3.40
2023-05-25T13:12:35.620Z,3.00